Classifiche di sempre
Migliori tempi personali validi di atleta tra tutti gli eventi e le stagioni. Ogni atleta compare una sola volta per divisione.
Cerca per nome e apri la pagina in cui è classificato questo record di divisione.
104,510 atleti in classifica
| Pos. | Pos. AG | Atleta | Nazionalità | Categoria età | TempoMiglior tempo | Distacco |
|---|---|---|---|---|---|---|
| 28101 | #3853 | Anne Van Der PutNED · W 16-24 · AG #3853 | NED | W 16-24 | 1:25:44 | +46:08 |
| 28102 | #1679 | Athena JohnsonAUS · W 45-49 · AG #1679 | AUS | W 45-49 | 1:25:44 | +46:08 |
| 28103 | #7454 | Gloria GöddeW 25-29 · AG #7454 | -- | W 25-29 | 1:25:44 | +46:08 |
| 28104 | #52 | Bernie BlackIRL · W 60-64 · AG #52 | IRL | W 60-64 | 1:25:44 | +46:08 |
| 28105 | #3855 | Antonia DośpiałPOL · W 16-24 · AG #3855 | POL | W 16-24 | 1:25:44 | +46:08 |
| 28106 | #3858 | Amy TebbenNED · W 16-24 · AG #3858 | NED | W 16-24 | 1:25:44 | +46:08 |
| 28107 | #7228 | Laura GrootenboerNED · W 30-34 · AG #7228 | NED | W 30-34 | 1:25:44 | +46:08 |
| 28108 | #7227 | Loreine BabilotteFRA · W 30-34 · AG #7227 | FRA | W 30-34 | 1:25:44 | +46:08 |
| 28109 | #5120 | Samia BoutayebFRA · W 35-39 · AG #5120 | FRA | W 35-39 | 1:25:44 | +46:08 |
| 28110 | #7455 | Solène Jean-JacquesFRA · W 25-29 · AG #7455 | FRA | W 25-29 | 1:25:44 | +46:08 |
| 28111 | #1681 | Sandra TauerGER · W 45-49 · AG #1681 | GER | W 45-49 | 1:25:45 | +46:09 |
| 28112 | #7230 | Marta AceroESP · W 30-34 · AG #7230 | ESP | W 30-34 | 1:25:45 | +46:09 |
| 28113 | #5121 | Danielle DunnaganGBR · W 35-39 · AG #5121 | GBR | W 35-39 | 1:25:45 | +46:09 |
| 28114 | #5122 | Kelly SuttonGBR · W 35-39 · AG #5122 | GBR | W 35-39 | 1:25:45 | +46:09 |
| 28115 | #5123 | Iona KellyIRL · W 35-39 · AG #5123 | IRL | W 35-39 | 1:25:45 | +46:09 |
| 28116 | #7234 | Monica ConzutITA · W 30-34 · AG #7234 | ITA | W 30-34 | 1:25:45 | +46:09 |
| 28117 | #7458 | Devi BosmaNED · W 25-29 · AG #7458 | NED | W 25-29 | 1:25:45 | +46:09 |
| 28118 | #7235 | Rachel FoyUSA · W 30-34 · AG #7235 | USA | W 30-34 | 1:25:45 | +46:09 |
| 28119 | #1682 | Pauline BolgerIRL · W 45-49 · AG #1682 | IRL | W 45-49 | 1:25:45 | +46:09 |
| 28120 | #3480 | Chantal ChristenSUI · W 40-44 · AG #3480 | SUI | W 40-44 | 1:25:45 | +46:09 |
| 28121 | #3860 | Lexie FormauxFRA · W 16-24 · AG #3860 | FRA | W 16-24 | 1:25:45 | +46:09 |
| 28122 | #7236 | Fran MilnesGBR · W 30-34 · AG #7236 | GBR | W 30-34 | 1:25:45 | +46:09 |
| 28123 | #7459 | Kelsey SmithUSA · W 25-29 · AG #7459 | USA | W 25-29 | 1:25:45 | +46:09 |
| 28124 | #7237 | Anouk Doria ModenaMON · W 30-34 · AG #7237 | MON | W 30-34 | 1:25:45 | +46:09 |
| 28125 | #1683 | Cathrine LorentzenNOR · W 45-49 · AG #1683 | NOR | W 45-49 | 1:25:45 | +46:09 |
Pagina 1,125 di 4,181